sensor_id;sensor_type;location;lat;lon;timestamp;P1;durP1;ratioP1;P2;durP2;ratioP2
12900;SDS011;6518;50.930;5.344;2023-08-06T00:01:54;6.53;;;1.70;;
12900;SDS011;6518;50.930;5.344;2023-08-06T00:04:21;3.03;;;1.67;;
12900;SDS011;6518;50.930;5.344;2023-08-06T00:06:48;3.88;;;1.50;;
12900;SDS011;6518;50.930;5.344;2023-08-06T00:09:16;4.28;;;1.60;;
12900;SDS011;6518;50.930;5.344;2023-08-06T00:11:43;4.50;;;1.55;;
12900;SDS011;6518;50.930;5.344;2023-08-06T00:14:11;3.30;;;1.30;;
12900;SDS011;6518;50.930;5.344;2023-08-06T00:16:42;5.10;;;1.83;;
12900;SDS011;6518;50.930;5.344;2023-08-06T00:19:09;3.97;;;1.48;;
12900;SDS011;6518;50.930;5.344;2023-08-06T00:21:36;4.35;;;1.30;;
12900;SDS011;6518;50.930;5.344;2023-08-06T00:24:03;4.03;;;1.30;;
12900;SDS011;6518;50.930;5.344;2023-08-06T00:26:30;2.92;;;1.30;;
12900;SDS011;6518;50.930;5.344;2023-08-06T00:28:57;4.25;;;1.40;;
12900;SDS011;6518;50.930;5.344;2023-08-06T00:31:24;2.28;;;1.00;;
12900;SDS011;6518;50.930;5.344;2023-08-06T00:33:53;4.72;;;1.50;;
12900;SDS011;6518;50.930;5.344;2023-08-06T00:36:19;3.08;;;1.08;;
12900;SDS011;6518;50.930;5.344;2023-08-06T00:38:49;3.97;;;1.55;;
12900;SDS011;6518;50.930;5.344;2023-08-06T00:41:18;2.95;;;1.30;;
12900;SDS011;6518;50.930;5.344;2023-08-06T00:43:45;3.28;;;1.45;;
12900;SDS011;6518;50.930;5.344;2023-08-06T00:46:12;4.70;;;1.30;;
12900;SDS011;6518;50.930;5.344;2023-08-06T00:48:39;4.97;;;1.63;;
12900;SDS011;6518;50.930;5.344;2023-08-06T00:51:08;2.42;;;1.15;;
12900;SDS011;6518;50.930;5.344;2023-08-06T00:53:36;6.07;;;1.38;;
12900;SDS011;6518;50.930;5.344;2023-08-06T00:56:04;4.32;;;1.35;;
12900;SDS011;6518;50.930;5.344;2023-08-06T00:58:31;5.35;;;1.40;;
12900;SDS011;6518;50.930;5.344;2023-08-06T01:00:58;3.35;;;1.10;;
12900;SDS011;6518;50.930;5.344;2023-08-06T01:03:26;2.13;;;1.20;;
12900;SDS011;6518;50.930;5.344;2023-08-06T01:05:53;2.60;;;1.10;;
12900;SDS011;6518;50.930;5.344;2023-08-06T01:08:26;2.53;;;1.45;;
12900;SDS011;6518;50.930;5.344;2023-08-06T01:11:05;3.40;;;1.40;;
12900;SDS011;6518;50.930;5.344;2023-08-06T01:13:41;4.07;;;1.20;;
12900;SDS011;6518;50.930;5.344;2023-08-06T01:16:12;3.35;;;1.30;;
12900;SDS011;6518;50.930;5.344;2023-08-06T01:18:42;3.90;;;1.15;;
12900;SDS011;6518;50.930;5.344;2023-08-06T01:21:13;3.97;;;1.20;;
12900;SDS011;6518;50.930;5.344;2023-08-06T01:23:40;5.78;;;1.48;;
12900;SDS011;6518;50.930;5.344;2023-08-06T01:26:10;2.65;;;1.10;;
12900;SDS011;6518;50.930;5.344;2023-08-06T01:28:44;4.45;;;1.27;;
12900;SDS011;6518;50.930;5.344;2023-08-06T01:31:21;3.95;;;1.20;;
12900;SDS011;6518;50.930;5.344;2023-08-06T01:33:50;4.05;;;1.10;;
12900;SDS011;6518;50.930;5.344;2023-08-06T01:36:20;5.82;;;1.23;;
12900;SDS011;6518;50.930;5.344;2023-08-06T01:38:48;3.63;;;1.40;;
12900;SDS011;6518;50.930;5.344;2023-08-06T01:41:15;7.15;;;1.23;;
12900;SDS011;6518;50.930;5.344;2023-08-06T01:43:42;5.60;;;1.10;;
12900;SDS011;6518;50.930;5.344;2023-08-06T01:46:09;3.95;;;1.13;;
12900;SDS011;6518;50.930;5.344;2023-08-06T01:48:36;3.28;;;0.90;;
12900;SDS011;6518;50.930;5.344;2023-08-06T01:51:03;1.98;;;1.00;;
12900;SDS011;6518;50.930;5.344;2023-08-06T01:53:32;4.57;;;1.20;;
12900;SDS011;6518;50.930;5.344;2023-08-06T01:55:59;2.28;;;1.10;;
12900;SDS011;6518;50.930;5.344;2023-08-06T01:58:26;2.20;;;1.00;;
12900;SDS011;6518;50.930;5.344;2023-08-06T02:00:53;2.00;;;0.88;;
12900;SDS011;6518;50.930;5.344;2023-08-06T02:03:20;4.03;;;1.00;;
12900;SDS011;6518;50.930;5.344;2023-08-06T02:05:47;3.65;;;1.10;;
12900;SDS011;6518;50.930;5.344;2023-08-06T02:08:14;2.15;;;1.33;;
12900;SDS011;6518;50.930;5.344;2023-08-06T02:10:42;3.22;;;1.30;;
12900;SDS011;6518;50.930;5.344;2023-08-06T02:13:10;2.95;;;1.20;;
12900;SDS011;6518;50.930;5.344;2023-08-06T02:15:41;3.38;;;1.30;;
12900;SDS011;6518;50.930;5.344;2023-08-06T02:18:08;2.03;;;1.00;;
12900;SDS011;6518;50.930;5.344;2023-08-06T02:20:35;1.98;;;1.00;;
12900;SDS011;6518;50.930;5.344;2023-08-06T02:23:02;3.72;;;1.00;;
12900;SDS011;6518;50.930;5.344;2023-08-06T02:25:29;3.05;;;1.00;;
12900;SDS011;6518;50.930;5.344;2023-08-06T02:27:57;2.03;;;0.93;;
12900;SDS011;6518;50.930;5.344;2023-08-06T02:30:24;3.60;;;1.80;;
12900;SDS011;6518;50.930;5.344;2023-08-06T02:32:51;3.97;;;1.23;;
12900;SDS011;6518;50.930;5.344;2023-08-06T02:35:18;2.22;;;0.98;;
12900;SDS011;6518;50.930;5.344;2023-08-06T02:37:45;2.83;;;1.08;;
12900;SDS011;6518;50.930;5.344;2023-08-06T02:40:12;2.40;;;1.20;;
12900;SDS011;6518;50.930;5.344;2023-08-06T02:42:39;2.45;;;1.10;;
12900;SDS011;6518;50.930;5.344;2023-08-06T02:45:08;3.33;;;2.63;;
12900;SDS011;6518;50.930;5.344;2023-08-06T02:47:35;4.75;;;1.17;;
12900;SDS011;6518;50.930;5.344;2023-08-06T02:50:02;1.58;;;0.90;;
12900;SDS011;6518;50.930;5.344;2023-08-06T02:52:29;2.50;;;1.33;;
12900;SDS011;6518;50.930;5.344;2023-08-06T02:54:56;1.85;;;1.05;;
12900;SDS011;6518;50.930;5.344;2023-08-06T02:57:25;2.05;;;1.05;;
12900;SDS011;6518;50.930;5.344;2023-08-06T02:59:52;2.08;;;1.20;;
12900;SDS011;6518;50.930;5.344;2023-08-06T03:02:20;1.52;;;1.23;;
12900;SDS011;6518;50.930;5.344;2023-08-06T03:04:47;2.17;;;1.38;;
12900;SDS011;6518;50.930;5.344;2023-08-06T03:07:14;5.22;;;1.33;;
12900;SDS011;6518;50.930;5.344;2023-08-06T03:09:41;2.33;;;1.50;;
12900;SDS011;6518;50.930;5.344;2023-08-06T03:12:08;2.83;;;1.60;;
12900;SDS011;6518;50.930;5.344;2023-08-06T03:14:35;3.13;;;1.30;;
12900;SDS011;6518;50.930;5.344;2023-08-06T03:17:02;3.15;;;1.38;;
12900;SDS011;6518;50.930;5.344;2023-08-06T03:19:30;3.88;;;1.48;;
12900;SDS011;6518;50.930;5.344;2023-08-06T03:21:57;2.20;;;1.40;;
12900;SDS011;6518;50.930;5.344;2023-08-06T03:24:24;3.22;;;1.38;;
12900;SDS011;6518;50.930;5.344;2023-08-06T03:26:51;2.13;;;1.55;;
12900;SDS011;6518;50.930;5.344;2023-08-06T03:29:18;2.97;;;1.80;;
12900;SDS011;6518;50.930;5.344;2023-08-06T03:31:46;1.92;;;1.50;;
12900;SDS011;6518;50.930;5.344;2023-08-06T03:34:13;3.40;;;1.60;;
12900;SDS011;6518;50.930;5.344;2023-08-06T03:36:41;3.35;;;2.20;;
12900;SDS011;6518;50.930;5.344;2023-08-06T03:39:08;3.33;;;2.17;;
12900;SDS011;6518;50.930;5.344;2023-08-06T03:41:35;3.30;;;2.20;;
12900;SDS011;6518;50.930;5.344;2023-08-06T03:44:02;5.15;;;2.70;;
12900;SDS011;6518;50.930;5.344;2023-08-06T03:46:29;4.35;;;2.70;;
12900;SDS011;6518;50.930;5.344;2023-08-06T03:48:58;5.03;;;3.50;;
12900;SDS011;6518;50.930;5.344;2023-08-06T03:51:25;7.25;;;3.50;;
12900;SDS011;6518;50.930;5.344;2023-08-06T03:53:54;5.68;;;4.03;;
12900;SDS011;6518;50.930;5.344;2023-08-06T03:56:21;6.43;;;3.60;;
12900;SDS011;6518;50.930;5.344;2023-08-06T03:58:48;4.63;;;3.70;;
12900;SDS011;6518;50.930;5.344;2023-08-06T04:01:15;7.32;;;3.72;;
12900;SDS011;6518;50.930;5.344;2023-08-06T04:03:41;5.85;;;3.97;;
12900;SDS011;6518;50.930;5.344;2023-08-06T04:06:08;5.07;;;3.72;;
12900;SDS011;6518;50.930;5.344;2023-08-06T04:08:35;7.35;;;4.20;;
12900;SDS011;6518;50.930;5.344;2023-08-06T04:11:04;6.28;;;4.10;;
12900;SDS011;6518;50.930;5.344;2023-08-06T04:13:30;6.88;;;4.05;;
12900;SDS011;6518;50.930;5.344;2023-08-06T04:16:00;5.85;;;4.10;;
12900;SDS011;6518;50.930;5.344;2023-08-06T04:18:27;6.30;;;4.38;;
12900;SDS011;6518;50.930;5.344;2023-08-06T04:20:54;6.63;;;4.75;;
12900;SDS011;6518;50.930;5.344;2023-08-06T04:23:22;8.20;;;4.40;;
12900;SDS011;6518;50.930;5.344;2023-08-06T04:25:49;7.40;;;4.60;;
12900;SDS011;6518;50.930;5.344;2023-08-06T04:28:17;9.30;;;4.85;;
12900;SDS011;6518;50.930;5.344;2023-08-06T04:30:45;8.68;;;5.13;;
12900;SDS011;6518;50.930;5.344;2023-08-06T04:33:12;7.57;;;4.70;;
12900;SDS011;6518;50.930;5.344;2023-08-06T04:35:39;7.45;;;4.90;;
12900;SDS011;6518;50.930;5.344;2023-08-06T04:38:06;6.40;;;5.25;;
12900;SDS011;6518;50.930;5.344;2023-08-06T04:40:33;6.35;;;4.80;;
12900;SDS011;6518;50.930;5.344;2023-08-06T04:43:00;8.20;;;4.95;;
12900;SDS011;6518;50.930;5.344;2023-08-06T04:45:28;8.73;;;4.57;;
12900;SDS011;6518;50.930;5.344;2023-08-06T04:47:55;9.33;;;5.10;;
12900;SDS011;6518;50.930;5.344;2023-08-06T04:50:22;9.60;;;5.53;;
12900;SDS011;6518;50.930;5.344;2023-08-06T04:52:49;7.85;;;5.55;;
12900;SDS011;6518;50.930;5.344;2023-08-06T04:55:16;9.30;;;5.63;;
12900;SDS011;6518;50.930;5.344;2023-08-06T04:57:43;7.17;;;5.57;;
12900;SDS011;6518;50.930;5.344;2023-08-06T05:00:11;8.20;;;5.72;;
12900;SDS011;6518;50.930;5.344;2023-08-06T05:02:39;9.70;;;5.35;;
12900;SDS011;6518;50.930;5.344;2023-08-06T05:05:06;6.23;;;4.97;;
12900;SDS011;6518;50.930;5.344;2023-08-06T05:07:33;6.97;;;4.90;;
12900;SDS011;6518;50.930;5.344;2023-08-06T05:10:00;10.20;;;5.53;;
12900;SDS011;6518;50.930;5.344;2023-08-06T05:12:29;7.97;;;5.95;;
12900;SDS011;6518;50.930;5.344;2023-08-06T05:14:56;5.27;;;4.33;;
12900;SDS011;6518;50.930;5.344;2023-08-06T05:17:23;6.30;;;4.78;;
12900;SDS011;6518;50.930;5.344;2023-08-06T05:19:51;5.67;;;4.60;;
12900;SDS011;6518;50.930;5.344;2023-08-06T05:22:18;7.03;;;4.80;;
12900;SDS011;6518;50.930;5.344;2023-08-06T05:24:45;6.32;;;4.75;;
12900;SDS011;6518;50.930;5.344;2023-08-06T05:27:12;6.82;;;5.35;;
12900;SDS011;6518;50.930;5.344;2023-08-06T05:29:39;6.53;;;4.90;;
12900;SDS011;6518;50.930;5.344;2023-08-06T05:32:06;5.97;;;4.68;;
12900;SDS011;6518;50.930;5.344;2023-08-06T05:34:34;5.22;;;3.92;;
12900;SDS011;6518;50.930;5.344;2023-08-06T05:37:02;4.18;;;3.78;;
12900;SDS011;6518;50.930;5.344;2023-08-06T05:39:29;4.93;;;3.63;;
12900;SDS011;6518;50.930;5.344;2023-08-06T05:41:56;5.47;;;3.67;;
12900;SDS011;6518;50.930;5.344;2023-08-06T05:44:23;4.82;;;3.42;;
12900;SDS011;6518;50.930;5.344;2023-08-06T05:46:50;4.40;;;3.23;;
12900;SDS011;6518;50.930;5.344;2023-08-06T05:49:18;3.08;;;2.17;;
12900;SDS011;6518;50.930;5.344;2023-08-06T05:51:45;3.50;;;2.35;;
12900;SDS011;6518;50.930;5.344;2023-08-06T05:54:14;1.97;;;1.60;;
12900;SDS011;6518;50.930;5.344;2023-08-06T05:56:41;2.60;;;1.70;;
12900;SDS011;6518;50.930;5.344;2023-08-06T05:59:08;2.00;;;1.80;;
12900;SDS011;6518;50.930;5.344;2023-08-06T06:01:34;2.13;;;1.93;;
12900;SDS011;6518;50.930;5.344;2023-08-06T06:04:01;2.30;;;2.10;;
12900;SDS011;6518;50.930;5.344;2023-08-06T06:06:29;3.00;;;2.73;;
12900;SDS011;6518;50.930;5.344;2023-08-06T06:08:56;5.50;;;3.40;;
12900;SDS011;6518;50.930;5.344;2023-08-06T06:11:24;4.57;;;3.78;;
12900;SDS011;6518;50.930;5.344;2023-08-06T06:13:51;4.20;;;3.73;;
12900;SDS011;6518;50.930;5.344;2023-08-06T06:16:18;4.43;;;3.90;;
12900;SDS011;6518;50.930;5.344;2023-08-06T06:18:45;4.40;;;3.85;;
12900;SDS011;6518;50.930;5.344;2023-08-06T06:21:12;3.90;;;3.43;;
12900;SDS011;6518;50.930;5.344;2023-08-06T06:23:39;2.50;;;1.80;;
12900;SDS011;6518;50.930;5.344;2023-08-06T06:26:06;1.57;;;1.47;;
12900;SDS011;6518;50.930;5.344;2023-08-06T06:28:36;2.43;;;1.30;;
12900;SDS011;6518;50.930;5.344;2023-08-06T06:31:03;1.50;;;1.40;;
12900;SDS011;6518;50.930;5.344;2023-08-06T06:33:30;1.60;;;1.47;;
12900;SDS011;6518;50.930;5.344;2023-08-06T06:35:57;4.80;;;1.70;;
12900;SDS011;6518;50.930;5.344;2023-08-06T06:38:23;2.10;;;1.30;;
12900;SDS011;6518;50.930;5.344;2023-08-06T06:40:54;2.53;;;1.73;;
12900;SDS011;6518;50.930;5.344;2023-08-06T06:43:21;2.30;;;2.00;;
12900;SDS011;6518;50.930;5.344;2023-08-06T06:45:53;3.87;;;2.47;;
12900;SDS011;6518;50.930;5.344;2023-08-06T06:48:22;5.63;;;2.90;;
12900;SDS011;6518;50.930;5.344;2023-08-06T06:50:49;3.50;;;3.20;;
12900;SDS011;6518;50.930;5.344;2023-08-06T06:53:16;3.97;;;2.90;;
12900;SDS011;6518;50.930;5.344;2023-08-06T06:55:43;4.20;;;3.70;;
12900;SDS011;6518;50.930;5.344;2023-08-06T06:58:09;4.53;;;3.57;;
12900;SDS011;6518;50.930;5.344;2023-08-06T07:00:36;5.50;;;3.73;;
12900;SDS011;6518;50.930;5.344;2023-08-06T07:03:05;5.60;;;4.27;;
12900;SDS011;6518;50.930;5.344;2023-08-06T07:05:32;3.53;;;2.97;;
12900;SDS011;6518;50.930;5.344;2023-08-06T07:07:59;4.97;;;4.00;;
12900;SDS011;6518;50.930;5.344;2023-08-06T07:10:26;4.80;;;4.30;;
12900;SDS011;6518;50.930;5.344;2023-08-06T07:12:53;6.90;;;4.60;;
12900;SDS011;6518;50.930;5.344;2023-08-06T07:15:20;6.87;;;3.97;;
12900;SDS011;6518;50.930;5.344;2023-08-06T07:17:47;7.20;;;4.33;;
12900;SDS011;6518;50.930;5.344;2023-08-06T07:20:15;5.27;;;3.27;;
12900;SDS011;6518;50.930;5.344;2023-08-06T07:22:43;4.10;;;3.70;;
12900;SDS011;6518;50.930;5.344;2023-08-06T07:25:10;5.97;;;2.60;;
12900;SDS011;6518;50.930;5.344;2023-08-06T07:27:37;4.60;;;2.50;;
12900;SDS011;6518;50.930;5.344;2023-08-06T07:30:05;2.70;;;1.93;;
12900;SDS011;6518;50.930;5.344;2023-08-06T07:32:32;2.83;;;2.10;;
12900;SDS011;6518;50.930;5.344;2023-08-06T07:34:59;2.50;;;1.80;;
12900;SDS011;6518;50.930;5.344;2023-08-06T07:37:29;3.20;;;1.87;;
12900;SDS011;6518;50.930;5.344;2023-08-06T07:39:56;3.90;;;1.60;;
12900;SDS011;6518;50.930;5.344;2023-08-06T07:42:23;4.73;;;2.30;;
12900;SDS011;6518;50.930;5.344;2023-08-06T07:44:51;4.20;;;2.20;;
12900;SDS011;6518;50.930;5.344;2023-08-06T07:47:18;3.53;;;1.90;;
12900;SDS011;6518;50.930;5.344;2023-08-06T07:49:45;5.70;;;2.60;;
12900;SDS011;6518;50.930;5.344;2023-08-06T07:52:12;4.60;;;2.43;;
12900;SDS011;6518;50.930;5.344;2023-08-06T07:54:41;4.30;;;2.30;;
12900;SDS011;6518;50.930;5.344;2023-08-06T07:57:08;5.93;;;2.70;;
12900;SDS011;6518;50.930;5.344;2023-08-06T07:59:35;5.13;;;2.87;;
12900;SDS011;6518;50.930;5.344;2023-08-06T08:02:02;5.90;;;2.83;;
12900;SDS011;6518;50.930;5.344;2023-08-06T08:04:29;4.47;;;2.83;;
12900;SDS011;6518;50.930;5.344;2023-08-06T08:06:56;8.40;;;3.03;;
12900;SDS011;6518;50.930;5.344;2023-08-06T08:09:23;6.13;;;3.03;;
12900;SDS011;6518;50.930;5.344;2023-08-06T08:11:51;6.77;;;2.60;;
12900;SDS011;6518;50.930;5.344;2023-08-06T08:14:18;4.20;;;1.77;;
12900;SDS011;6518;50.930;5.344;2023-08-06T08:16:45;5.17;;;2.10;;
12900;SDS011;6518;50.930;5.344;2023-08-06T08:19:12;4.77;;;2.43;;
12900;SDS011;6518;50.930;5.344;2023-08-06T08:21:39;5.70;;;2.60;;
12900;SDS011;6518;50.930;5.344;2023-08-06T08:24:05;7.63;;;2.93;;
12900;SDS011;6518;50.930;5.344;2023-08-06T08:26:32;6.40;;;2.45;;
12900;SDS011;6518;50.930;5.344;2023-08-06T08:29:01;5.77;;;2.37;;
12900;SDS011;6518;50.930;5.344;2023-08-06T08:31:27;6.00;;;2.10;;
12900;SDS011;6518;50.930;5.344;2023-08-06T08:33:54;4.90;;;2.13;;
12900;SDS011;6518;50.930;5.344;2023-08-06T08:36:21;5.17;;;2.50;;
12900;SDS011;6518;50.930;5.344;2023-08-06T08:38:48;7.60;;;2.80;;
12900;SDS011;6518;50.930;5.344;2023-08-06T08:41:18;5.93;;;2.67;;
12900;SDS011;6518;50.930;5.344;2023-08-06T08:43:47;5.53;;;2.50;;
12900;SDS011;6518;50.930;5.344;2023-08-06T08:46:19;8.67;;;2.50;;
12900;SDS011;6518;50.930;5.344;2023-08-06T08:48:48;6.93;;;3.17;;
12900;SDS011;6518;50.930;5.344;2023-08-06T08:51:15;8.17;;;3.00;;
12900;SDS011;6518;50.930;5.344;2023-08-06T08:53:43;4.17;;;2.60;;
12900;SDS011;6518;50.930;5.344;2023-08-06T08:56:10;7.73;;;2.83;;
12900;SDS011;6518;50.930;5.344;2023-08-06T08:58:39;8.97;;;3.07;;
12900;SDS011;6518;50.930;5.344;2023-08-06T09:01:07;7.47;;;2.33;;
12900;SDS011;6518;50.930;5.344;2023-08-06T09:03:36;7.77;;;2.37;;
12900;SDS011;6518;50.930;5.344;2023-08-06T09:06:03;11.07;;;2.10;;
12900;SDS011;6518;50.930;5.344;2023-08-06T09:08:35;10.63;;;2.47;;
12900;SDS011;6518;50.930;5.344;2023-08-06T09:11:05;7.20;;;1.53;;
12900;SDS011;6518;50.930;5.344;2023-08-06T09:13:36;8.63;;;2.00;;
12900;SDS011;6518;50.930;5.344;2023-08-06T09:16:03;6.93;;;1.70;;
12900;SDS011;6518;50.930;5.344;2023-08-06T09:18:30;7.67;;;2.20;;
12900;SDS011;6518;50.930;5.344;2023-08-06T09:20:59;11.37;;;3.57;;
12900;SDS011;6518;50.930;5.344;2023-08-06T09:23:29;8.47;;;1.87;;
12900;SDS011;6518;50.930;5.344;2023-08-06T09:25:56;7.33;;;2.50;;
12900;SDS011;6518;50.930;5.344;2023-08-06T09:28:26;5.95;;;1.75;;
12900;SDS011;6518;50.930;5.344;2023-08-06T09:31:03;7.53;;;2.00;;
12900;SDS011;6518;50.930;5.344;2023-08-06T09:33:30;7.00;;;1.87;;
12900;SDS011;6518;50.930;5.344;2023-08-06T09:35:59;7.80;;;2.10;;
12900;SDS011;6518;50.930;5.344;2023-08-06T09:38:37;8.20;;;2.23;;
12900;SDS011;6518;50.930;5.344;2023-08-06T09:41:06;11.02;;;2.22;;
12900;SDS011;6518;50.930;5.344;2023-08-06T09:43:39;8.45;;;2.13;;
12900;SDS011;6518;50.930;5.344;2023-08-06T09:46:10;10.20;;;2.27;;
12900;SDS011;6518;50.930;5.344;2023-08-06T09:48:39;6.40;;;1.80;;
12900;SDS011;6518;50.930;5.344;2023-08-06T09:51:08;10.10;;;2.10;;
12900;SDS011;6518;50.930;5.344;2023-08-06T09:53:36;4.97;;;1.48;;
12900;SDS011;6518;50.930;5.344;2023-08-06T09:56:05;3.97;;;1.60;;
12900;SDS011;6518;50.930;5.344;2023-08-06T09:58:32;8.40;;;1.30;;
12900;SDS011;6518;50.930;5.344;2023-08-06T10:00:59;6.80;;;1.77;;
12900;SDS011;6518;50.930;5.344;2023-08-06T10:03:28;9.00;;;2.03;;
12900;SDS011;6518;50.930;5.344;2023-08-06T10:05:56;5.43;;;1.60;;
12900;SDS011;6518;50.930;5.344;2023-08-06T10:08:28;5.77;;;1.47;;
12900;SDS011;6518;50.930;5.344;2023-08-06T10:10:55;6.17;;;1.60;;
12900;SDS011;6518;50.930;5.344;2023-08-06T10:13:22;4.47;;;1.57;;
12900;SDS011;6518;50.930;5.344;2023-08-06T10:15:50;5.60;;;1.63;;
12900;SDS011;6518;50.930;5.344;2023-08-06T10:18:18;5.35;;;1.38;;
12900;SDS011;6518;50.930;5.344;2023-08-06T10:20:47;5.70;;;1.50;;
12900;SDS011;6518;50.930;5.344;2023-08-06T10:23:14;3.43;;;1.30;;
12900;SDS011;6518;50.930;5.344;2023-08-06T10:25:43;5.23;;;1.40;;
12900;SDS011;6518;50.930;5.344;2023-08-06T10:28:21;5.07;;;1.57;;
12900;SDS011;6518;50.930;5.344;2023-08-06T10:30:48;4.10;;;1.40;;
12900;SDS011;6518;50.930;5.344;2023-08-06T10:33:16;5.63;;;1.60;;
12900;SDS011;6518;50.930;5.344;2023-08-06T10:35:48;5.57;;;1.67;;
12900;SDS011;6518;50.930;5.344;2023-08-06T10:38:16;6.47;;;1.80;;
12900;SDS011;6518;50.930;5.344;2023-08-06T10:40:50;4.23;;;2.00;;
12900;SDS011;6518;50.930;5.344;2023-08-06T10:43:27;6.70;;;1.60;;
12900;SDS011;6518;50.930;5.344;2023-08-06T10:45:56;6.33;;;2.20;;
12900;SDS011;6518;50.930;5.344;2023-08-06T10:48:30;4.80;;;2.03;;
12900;SDS011;6518;50.930;5.344;2023-08-06T10:51:00;4.03;;;1.25;;
12900;SDS011;6518;50.930;5.344;2023-08-06T10:53:28;5.22;;;1.42;;
12900;SDS011;6518;50.930;5.344;2023-08-06T10:55:57;4.97;;;1.63;;
12900;SDS011;6518;50.930;5.344;2023-08-06T10:58:25;3.47;;;1.58;;
12900;SDS011;6518;50.930;5.344;2023-08-06T11:00:52;4.13;;;1.23;;
12900;SDS011;6518;50.930;5.344;2023-08-06T11:03:19;2.20;;;1.10;;
12900;SDS011;6518;50.930;5.344;2023-08-06T11:05:48;3.40;;;1.33;;
12900;SDS011;6518;50.930;5.344;2023-08-06T11:08:22;2.67;;;1.23;;
12900;SDS011;6518;50.930;5.344;2023-08-06T11:10:51;3.85;;;1.40;;
12900;SDS011;6518;50.930;5.344;2023-08-06T11:13:19;1.98;;;0.90;;
12900;SDS011;6518;50.930;5.344;2023-08-06T11:15:46;4.30;;;1.30;;
12900;SDS011;6518;50.930;5.344;2023-08-06T11:18:13;4.80;;;1.90;;
12900;SDS011;6518;50.930;5.344;2023-08-06T11:20:40;4.97;;;1.15;;
12900;SDS011;6518;50.930;5.344;2023-08-06T11:23:09;4.25;;;1.10;;
12900;SDS011;6518;50.930;5.344;2023-08-06T11:25:36;2.70;;;0.90;;
12900;SDS011;6518;50.930;5.344;2023-08-06T11:28:04;4.10;;;0.97;;
12900;SDS011;6518;50.930;5.344;2023-08-06T11:30:32;1.73;;;0.80;;
12900;SDS011;6518;50.930;5.344;2023-08-06T11:32:59;3.43;;;1.30;;
12900;SDS011;6518;50.930;5.344;2023-08-06T11:35:26;4.03;;;0.83;;
12900;SDS011;6518;50.930;5.344;2023-08-06T11:37:53;3.40;;;1.20;;
12900;SDS011;6518;50.930;5.344;2023-08-06T11:40:20;4.30;;;1.40;;
12900;SDS011;6518;50.930;5.344;2023-08-06T11:42:47;7.90;;;1.77;;
12900;SDS011;6518;50.930;5.344;2023-08-06T11:45:14;5.53;;;1.60;;
12900;SDS011;6518;50.930;5.344;2023-08-06T11:47:49;6.90;;;1.80;;
12900;SDS011;6518;50.930;5.344;2023-08-06T11:50:21;3.60;;;1.00;;
12900;SDS011;6518;50.930;5.344;2023-08-06T11:52:49;4.38;;;1.38;;
12900;SDS011;6518;50.930;5.344;2023-08-06T11:55:22;5.40;;;1.10;;
12900;SDS011;6518;50.930;5.344;2023-08-06T11:57:50;3.80;;;1.45;;
12900;SDS011;6518;50.930;5.344;2023-08-06T12:00:17;4.65;;;1.13;;
12900;SDS011;6518;50.930;5.344;2023-08-06T12:02:48;3.67;;;1.30;;
12900;SDS011;6518;50.930;5.344;2023-08-06T12:05:17;4.35;;;1.10;;
12900;SDS011;6518;50.930;5.344;2023-08-06T12:07:49;2.77;;;0.97;;
12900;SDS011;6518;50.930;5.344;2023-08-06T12:10:17;3.70;;;1.00;;
12900;SDS011;6518;50.930;5.344;2023-08-06T12:12:45;5.53;;;1.33;;
12900;SDS011;6518;50.930;5.344;2023-08-06T12:15:12;5.83;;;1.20;;
12900;SDS011;6518;50.930;5.344;2023-08-06T12:17:40;4.37;;;1.20;;
12900;SDS011;6518;50.930;5.344;2023-08-06T12:20:08;2.77;;;1.30;;
12900;SDS011;6518;50.930;5.344;2023-08-06T12:22:37;3.67;;;1.53;;
12900;SDS011;6518;50.930;5.344;2023-08-06T12:25:05;3.93;;;1.10;;
12900;SDS011;6518;50.930;5.344;2023-08-06T12:27:34;4.83;;;1.20;;
12900;SDS011;6518;50.930;5.344;2023-08-06T12:30:01;3.10;;;1.20;;
12900;SDS011;6518;50.930;5.344;2023-08-06T12:32:29;3.10;;;0.90;;
12900;SDS011;6518;50.930;5.344;2023-08-06T12:34:56;6.37;;;2.00;;
12900;SDS011;6518;50.930;5.344;2023-08-06T12:37:24;4.27;;;2.27;;
12900;SDS011;6518;50.930;5.344;2023-08-06T12:39:52;6.77;;;1.90;;
12900;SDS011;6518;50.930;5.344;2023-08-06T12:42:19;4.78;;;1.48;;
12900;SDS011;6518;50.930;5.344;2023-08-06T12:44:47;5.33;;;1.53;;
12900;SDS011;6518;50.930;5.344;2023-08-06T12:47:15;4.43;;;1.33;;
12900;SDS011;6518;50.930;5.344;2023-08-06T12:49:42;4.68;;;1.30;;
12900;SDS011;6518;50.930;5.344;2023-08-06T12:52:09;5.50;;;1.60;;
12900;SDS011;6518;50.930;5.344;2023-08-06T12:54:39;3.83;;;1.10;;
12900;SDS011;6518;50.930;5.344;2023-08-06T12:57:06;2.47;;;1.20;;
12900;SDS011;6518;50.930;5.344;2023-08-06T12:59:34;4.90;;;1.27;;
12900;SDS011;6518;50.930;5.344;2023-08-06T13:02:01;3.97;;;1.10;;
12900;SDS011;6518;50.930;5.344;2023-08-06T13:04:28;2.97;;;1.10;;
12900;SDS011;6518;50.930;5.344;2023-08-06T13:06:56;4.33;;;1.07;;
12900;SDS011;6518;50.930;5.344;2023-08-06T13:09:23;4.13;;;1.10;;
12900;SDS011;6518;50.930;5.344;2023-08-06T13:11:52;3.28;;;1.08;;
12900;SDS011;6518;50.930;5.344;2023-08-06T13:14:19;6.90;;;1.20;;
12900;SDS011;6518;50.930;5.344;2023-08-06T13:16:46;4.28;;;1.10;;
12900;SDS011;6518;50.930;5.344;2023-08-06T13:19:13;4.27;;;1.17;;
12900;SDS011;6518;50.930;5.344;2023-08-06T13:21:58;4.25;;;1.02;;
12900;SDS011;6518;50.930;5.344;2023-08-06T13:24:28;3.20;;;0.98;;
12900;SDS011;6518;50.930;5.344;2023-08-06T13:26:56;1.73;;;1.00;;
12900;SDS011;6518;50.930;5.344;2023-08-06T13:29:24;3.88;;;1.40;;
12900;SDS011;6518;50.930;5.344;2023-08-06T13:31:51;2.97;;;1.13;;
12900;SDS011;6518;50.930;5.344;2023-08-06T13:34:18;4.17;;;1.30;;
12900;SDS011;6518;50.930;5.344;2023-08-06T13:36:45;3.90;;;1.13;;
12900;SDS011;6518;50.930;5.344;2023-08-06T13:39:12;4.03;;;1.30;;
12900;SDS011;6518;50.930;5.344;2023-08-06T13:41:41;3.70;;;1.10;;
12900;SDS011;6518;50.930;5.344;2023-08-06T13:44:09;3.40;;;1.30;;
12900;SDS011;6518;50.930;5.344;2023-08-06T13:46:39;3.40;;;1.40;;
12900;SDS011;6518;50.930;5.344;2023-08-06T13:49:06;5.70;;;1.50;;
12900;SDS011;6518;50.930;5.344;2023-08-06T13:51:33;6.00;;;1.80;;
12900;SDS011;6518;50.930;5.344;2023-08-06T13:54:01;5.90;;;1.20;;
12900;SDS011;6518;50.930;5.344;2023-08-06T13:56:28;7.43;;;1.50;;
12900;SDS011;6518;50.930;5.344;2023-08-06T13:58:55;4.13;;;1.30;;
12900;SDS011;6518;50.930;5.344;2023-08-06T14:01:24;3.57;;;1.00;;
12900;SDS011;6518;50.930;5.344;2023-08-06T14:03:51;4.27;;;1.37;;
12900;SDS011;6518;50.930;5.344;2023-08-06T14:06:18;4.17;;;1.10;;
12900;SDS011;6518;50.930;5.344;2023-08-06T14:08:45;4.30;;;0.90;;
12900;SDS011;6518;50.930;5.344;2023-08-06T14:11:12;3.40;;;0.73;;
12900;SDS011;6518;50.930;5.344;2023-08-06T14:13:39;4.67;;;0.90;;
12900;SDS011;6518;50.930;5.344;2023-08-06T14:16:06;3.03;;;1.10;;
12900;SDS011;6518;50.930;5.344;2023-08-06T14:18:34;2.83;;;0.93;;
12900;SDS011;6518;50.930;5.344;2023-08-06T14:21:03;3.57;;;1.20;;
12900;SDS011;6518;50.930;5.344;2023-08-06T14:23:30;3.17;;;1.20;;
12900;SDS011;6518;50.930;5.344;2023-08-06T14:25:57;2.60;;;0.70;;
12900;SDS011;6518;50.930;5.344;2023-08-06T14:28:24;1.83;;;0.67;;
12900;SDS011;6518;50.930;5.344;2023-08-06T14:30:51;2.67;;;0.70;;
12900;SDS011;6518;50.930;5.344;2023-08-06T14:33:18;2.33;;;0.80;;
12900;SDS011;6518;50.930;5.344;2023-08-06T14:35:46;1.77;;;0.60;;
12900;SDS011;6518;50.930;5.344;2023-08-06T14:38:13;1.37;;;0.90;;
12900;SDS011;6518;50.930;5.344;2023-08-06T14:40:40;2.07;;;0.70;;
12900;SDS011;6518;50.930;5.344;2023-08-06T14:43:07;1.43;;;0.60;;
12900;SDS011;6518;50.930;5.344;2023-08-06T14:45:37;1.73;;;0.70;;
12900;SDS011;6518;50.930;5.344;2023-08-06T14:48:04;2.50;;;0.63;;
12900;SDS011;6518;50.930;5.344;2023-08-06T14:50:31;1.53;;;0.50;;
12900;SDS011;6518;50.930;5.344;2023-08-06T14:52:59;1.13;;;0.50;;
12900;SDS011;6518;50.930;5.344;2023-08-06T14:55:27;1.80;;;0.80;;
12900;SDS011;6518;50.930;5.344;2023-08-06T14:57:54;2.77;;;0.63;;
12900;SDS011;6518;50.930;5.344;2023-08-06T15:00:21;2.23;;;0.90;;
12900;SDS011;6518;50.930;5.344;2023-08-06T15:02:48;2.87;;;0.80;;
12900;SDS011;6518;50.930;5.344;2023-08-06T15:05:15;0.60;;;0.60;;